createdAt,value
2023-01-13T00:01:32.585Z,100825.47
2023-01-13T00:04:39.499Z,100819.59
2023-01-13T00:07:48.419Z,100811.62
2023-01-13T00:10:59.076Z,100816.31
2023-01-13T00:14:05.468Z,100816.31
2023-01-13T00:17:14.220Z,100816.25
2023-01-13T00:20:21.908Z,100810.78
2023-01-13T00:23:30.475Z,100803.03
2023-01-13T00:26:37.371Z,100797.38
2023-01-13T00:29:46.343Z,100801.78
2023-01-13T00:32:54.352Z,100796.63
2023-01-13T00:36:02.693Z,100802.16
2023-01-13T00:39:12.051Z,100802.56
2023-01-13T00:42:39.557Z,100800.41
2023-01-13T00:45:45.853Z,100811.47
2023-01-13T00:48:53.707Z,100804.00
2023-01-13T00:52:02.024Z,100806.53
2023-01-13T00:55:09.448Z,100812.47
2023-01-13T00:58:16.413Z,100797.00
2023-01-13T01:01:25.177Z,100804.31
2023-01-13T01:04:32.352Z,100804.81
2023-01-13T01:07:40.424Z,100796.63
2023-01-13T01:10:49.909Z,100802.34
2023-01-13T01:13:59.713Z,100792.19
2023-01-13T01:17:05.269Z,100798.66
2023-01-13T01:20:11.906Z,100794.47
2023-01-13T01:23:21.594Z,100796.13
2023-01-13T01:26:29.542Z,100784.81
2023-01-13T01:29:38.041Z,100786.63
2023-01-13T01:32:49.380Z,100781.50
2023-01-13T01:35:58.965Z,100786.72
2023-01-13T01:39:09.590Z,100779.09
2023-01-13T01:42:37.565Z,100778.53
2023-01-13T01:45:45.854Z,100775.81
2023-01-13T01:48:54.298Z,100767.66
2023-01-13T01:52:03.829Z,100769.09
2023-01-13T01:55:13.849Z,100766.50
2023-01-13T01:58:22.705Z,100773.56
2023-01-13T02:01:32.428Z,100766.59
2023-01-13T02:04:44.617Z,100760.72
2023-01-13T02:07:53.843Z,100763.13
2023-01-13T02:11:04.757Z,100758.87
2023-01-13T02:14:11.967Z,100751.87
2023-01-13T02:17:23.693Z,100755.19
2023-01-13T02:20:46.621Z,100752.50
2023-01-13T02:24:31.224Z,100755.03
2023-01-13T02:28:03.946Z,100749.03
2023-01-13T02:31:49.616Z,100751.44
2023-01-13T02:35:04.673Z,100745.84
2023-01-13T02:38:15.171Z,100729.94
2023-01-13T02:41:46.677Z,100731.53
2023-01-13T02:44:57.720Z,100738.78
2023-01-13T02:48:06.676Z,100731.34
2023-01-13T02:51:16.687Z,100733.22
2023-01-13T02:54:26.375Z,100731.53
2023-01-13T02:57:35.235Z,100734.78
2023-01-13T03:00:42.388Z,100726.03
2023-01-13T03:03:50.864Z,100721.41
2023-01-13T03:07:03.837Z,100717.47
2023-01-13T03:10:30.241Z,100724.56
2023-01-13T03:13:46.312Z,100716.44
2023-01-13T03:16:54.140Z,100720.72
2023-01-13T03:20:02.532Z,100715.59
2023-01-13T03:23:15.388Z,100710.34
2023-01-13T03:26:22.731Z,100714.97
2023-01-13T03:29:28.951Z,100716.03
2023-01-13T03:32:38.591Z,100714.87
2023-01-13T03:35:47.439Z,100708.88
2023-01-13T03:38:56.820Z,100711.50
2023-01-13T03:42:08.358Z,100702.81
2023-01-13T03:45:19.211Z,100696.25
2023-01-13T03:48:29.292Z,100703.25
2023-01-13T03:51:37.486Z,100690.09
2023-01-13T03:54:48.400Z,100694.28
2023-01-13T03:58:00.112Z,100700.25
2023-01-13T04:01:12.049Z,100693.66
2023-01-13T04:04:40.582Z,100694.59
2023-01-13T04:07:54.933Z,100701.50
2023-01-13T04:11:19.854Z,100706.00
2023-01-13T04:14:27.953Z,100705.81
2023-01-13T04:17:39.861Z,100702.38
2023-01-13T04:20:49.647Z,100708.72
2023-01-13T04:23:57.565Z,100700.66
2023-01-13T04:27:07.577Z,100706.62
2023-01-13T04:30:18.042Z,100706.72
2023-01-13T04:33:26.070Z,100705.91
2023-01-13T04:36:35.424Z,100717.19
2023-01-13T04:39:45.510Z,100714.69
2023-01-13T04:42:55.030Z,100716.47
2023-01-13T04:46:05.534Z,100713.03
2023-01-13T04:49:12.091Z,100718.44
2023-01-13T04:52:19.429Z,100715.94
2023-01-13T04:55:26.521Z,100710.81
2023-01-13T04:58:34.350Z,100709.56
2023-01-13T05:01:45.866Z,100713.41
2023-01-13T05:04:52.004Z,100710.72
2023-01-13T05:07:59.065Z,100708.09
2023-01-13T05:11:30.019Z,100719.78
2023-01-13T05:14:56.039Z,100723.34
2023-01-13T05:18:03.933Z,100709.62
2023-01-13T05:21:31.640Z,100723.72
2023-01-13T05:24:55.656Z,100724.34
2023-01-13T05:28:04.255Z,100730.19
2023-01-13T05:31:10.485Z,100724.56
2023-01-13T05:34:17.585Z,100730.19
2023-01-13T05:37:23.803Z,100728.00
2023-01-13T05:40:49.180Z,100737.69
2023-01-13T05:43:54.823Z,100742.84
2023-01-13T05:47:01.227Z,100734.66
2023-01-13T05:50:08.670Z,100724.06
2023-01-13T05:53:15.175Z,100727.91
2023-01-13T05:56:21.626Z,100724.44
2023-01-13T05:59:29.229Z,100721.44
2023-01-13T06:02:34.072Z,100723.25
2023-01-13T06:05:42.308Z,100722.47
2023-01-13T06:08:48.081Z,100725.94
2023-01-13T06:11:53.879Z,100733.66
2023-01-13T06:14:59.812Z,100728.41
2023-01-13T06:18:07.694Z,100725.09
2023-01-13T06:21:13.576Z,100734.78
2023-01-13T06:24:18.677Z,100731.87
2023-01-13T06:27:23.809Z,100733.78
2023-01-13T06:30:31.287Z,100740.66
2023-01-13T06:33:39.573Z,100743.38
2023-01-13T06:36:46.251Z,100733.34
2023-01-13T06:39:51.342Z,100741.94
2023-01-13T06:43:17.055Z,100732.53
2023-01-13T06:46:22.095Z,100742.88
2023-01-13T06:49:26.246Z,100746.41
2023-01-13T06:52:31.579Z,100755.00
2023-01-13T06:55:34.972Z,100752.41
2023-01-13T06:58:38.988Z,100754.84
2023-01-13T07:01:44.790Z,100758.84
2023-01-13T07:04:48.993Z,100759.47
2023-01-13T07:07:54.222Z,100765.22
2023-01-13T07:10:58.659Z,100756.25
2023-01-13T07:14:21.037Z,100760.53
2023-01-13T07:17:27.278Z,100766.84
2023-01-13T07:20:35.598Z,100766.84
2023-01-13T07:23:41.131Z,100764.75
2023-01-13T07:26:46.992Z,100756.06
2023-01-13T07:29:51.344Z,100754.91
2023-01-13T07:32:56.341Z,100755.66
2023-01-13T07:36:01.195Z,100761.41
2023-01-13T07:39:05.896Z,100767.16
2023-01-13T07:42:28.377Z,100755.75
2023-01-13T07:45:32.975Z,100759.84
2023-01-13T07:48:36.829Z,100762.97
2023-01-13T07:51:42.779Z,100765.84
2023-01-13T07:54:46.068Z,100767.88
2023-01-13T07:57:50.777Z,100776.56
2023-01-13T08:00:54.548Z,100766.09
2023-01-13T08:03:59.228Z,100775.94
2023-01-13T08:07:03.321Z,100773.94
2023-01-13T08:10:08.221Z,100786.81
2023-01-13T08:13:21.313Z,100794.75
2023-01-13T08:16:25.162Z,100794.38
2023-01-13T08:19:28.176Z,100795.78
2023-01-13T08:22:33.888Z,100798.41
2023-01-13T08:25:38.172Z,100799.03
2023-01-13T08:28:42.917Z,100797.78
2023-01-13T08:31:46.787Z,100801.88
2023-01-13T08:34:51.434Z,100801.56
2023-01-13T08:37:54.413Z,100808.47
2023-01-13T08:40:58.467Z,100810.59
2023-01-13T08:44:03.685Z,100802.09
2023-01-13T08:47:08.500Z,100812.22
2023-01-13T08:50:13.559Z,100807.44
2023-01-13T08:53:20.085Z,100809.19
2023-01-13T08:56:23.111Z,100810.34
2023-01-13T08:59:26.689Z,100819.94
2023-01-13T09:02:31.184Z,100828.53
2023-01-13T09:05:36.462Z,100821.06
2023-01-13T09:08:40.141Z,100816.56
2023-01-13T09:12:04.153Z,100808.47
2023-01-13T09:15:07.947Z,100812.69
2023-01-13T09:18:13.932Z,100817.94
2023-01-13T09:21:20.738Z,100811.75
2023-01-13T09:24:27.265Z,100810.00
2023-01-13T09:27:32.821Z,100807.66
2023-01-13T09:30:37.717Z,100808.31
2023-01-13T09:33:59.992Z,100809.78
2023-01-13T09:37:05.482Z,100813.53
2023-01-13T09:40:20.148Z,100811.72
2023-01-13T09:43:49.176Z,100814.00
2023-01-13T09:46:55.801Z,100800.78
2023-01-13T09:50:04.579Z,100805.84
2023-01-13T09:53:13.374Z,100810.44
2023-01-13T09:56:18.316Z,100805.44
2023-01-13T09:59:26.931Z,100803.59
2023-01-13T10:02:40.545Z,100797.09
2023-01-13T10:05:50.403Z,100808.22
2023-01-13T10:08:54.341Z,100799.72
2023-01-13T10:12:19.956Z,100799.28
2023-01-13T10:15:26.213Z,100803.22
2023-01-13T10:18:40.810Z,100794.91
2023-01-13T10:22:11.201Z,100798.41
2023-01-13T10:25:25.608Z,100795.31
2023-01-13T10:28:29.823Z,100791.66
2023-01-13T10:31:34.037Z,100796.69
2023-01-13T10:35:01.540Z,100797.28
2023-01-13T10:38:16.040Z,100797.19
2023-01-13T10:41:23.439Z,100790.53
2023-01-13T10:44:29.858Z,100783.81
2023-01-13T10:47:35.039Z,100783.66
2023-01-13T10:50:40.612Z,100775.69
2023-01-13T10:53:51.180Z,100775.59
2023-01-13T10:57:16.252Z,100766.34
2023-01-13T11:00:31.506Z,100763.78
2023-01-13T11:03:43.393Z,100753.81
2023-01-13T11:06:48.133Z,100742.88
2023-01-13T11:10:10.931Z,100747.12
2023-01-13T11:13:30.529Z,100741.50
2023-01-13T11:16:35.839Z,100751.50
2023-01-13T11:19:43.116Z,100732.91
2023-01-13T11:22:49.756Z,100736.75
2023-01-13T11:25:57.284Z,100729.38
2023-01-13T11:29:09.674Z,100717.03
2023-01-13T11:32:18.649Z,100716.56
2023-01-13T11:35:22.920Z,100719.91
2023-01-13T11:38:48.129Z,100717.44
2023-01-13T11:42:15.800Z,100726.59
2023-01-13T11:45:35.932Z,100723.56
2023-01-13T11:48:44.641Z,100714.47
2023-01-13T11:52:12.147Z,100704.00
2023-01-13T11:55:28.132Z,100703.81
2023-01-13T11:58:50.309Z,100696.56
2023-01-13T12:01:55.397Z,100672.31
2023-01-13T12:05:05.258Z,100675.62
2023-01-13T12:08:18.405Z,100666.12
2023-01-13T12:11:34.297Z,100660.47
2023-01-13T12:14:47.514Z,100657.78
2023-01-13T12:17:56.985Z,100653.53
2023-01-13T12:21:13.098Z,100648.56
2023-01-13T12:24:16.509Z,100642.22
2023-01-13T12:27:25.063Z,100634.69
2023-01-13T12:30:43.907Z,100637.19
2023-01-13T12:34:06.369Z,100638.16
2023-01-13T12:37:16.110Z,100647.59
2023-01-13T12:40:30.523Z,100647.31
2023-01-13T12:43:52.821Z,100655.91
2023-01-13T12:46:57.675Z,100651.72
2023-01-13T12:50:19.773Z,100652.50
2023-01-13T12:53:29.352Z,100654.06
2023-01-13T12:56:39.222Z,100644.31
2023-01-13T12:59:49.259Z,100637.97
2023-01-13T13:03:19.304Z,100640.09
2023-01-13T13:06:30.067Z,100640.75
2023-01-13T13:09:38.309Z,100648.19
2023-01-13T13:13:01.134Z,100648.28
2023-01-13T13:16:24.730Z,100659.72
2023-01-13T13:19:33.375Z,100664.94
2023-01-13T13:22:39.514Z,100664.56
2023-01-13T13:25:59.349Z,100665.66
2023-01-13T13:29:10.227Z,100662.38
2023-01-13T13:32:28.263Z,100661.06
2023-01-13T13:35:36.062Z,100659.22
2023-01-13T13:39:09.027Z,100655.59
2023-01-13T13:42:51.811Z,100646.03
2023-01-13T13:46:18.372Z,100647.50
2023-01-13T13:49:34.995Z,100650.25
2023-01-13T13:52:59.334Z,100654.78
2023-01-13T13:56:07.829Z,100665.78
2023-01-13T13:59:12.511Z,100673.03
2023-01-13T14:02:29.288Z,100676.38
2023-01-13T14:05:35.881Z,100681.03
2023-01-13T14:08:40.027Z,100678.53
2023-01-13T14:11:56.702Z,100674.50
2023-01-13T14:15:02.643Z,100683.78
2023-01-13T14:18:16.486Z,100678.28
2023-01-13T14:21:25.961Z,100683.41
2023-01-13T14:24:32.929Z,100682.81
2023-01-13T14:27:43.532Z,100676.00
2023-01-13T14:30:51.420Z,100675.31
2023-01-13T14:33:57.766Z,100666.69
2023-01-13T14:37:03.658Z,100674.34
2023-01-13T14:40:08.209Z,100668.50
2023-01-13T14:43:14.877Z,100677.22
2023-01-13T14:46:19.941Z,100667.56
2023-01-13T14:49:24.311Z,100670.78
2023-01-13T14:52:30.750Z,100683.66
2023-01-13T14:55:40.773Z,100680.56
2023-01-13T14:58:46.669Z,100689.53
2023-01-13T15:01:53.640Z,100684.37
2023-01-13T15:04:59.656Z,100682.59
2023-01-13T15:08:14.379Z,100669.22
2023-01-13T15:11:25.109Z,100670.31
2023-01-13T15:14:35.210Z,100671.84
2023-01-13T15:17:38.749Z,100665.75
2023-01-13T15:20:44.376Z,100667.81
2023-01-13T15:23:48.122Z,100664.56
2023-01-13T15:26:53.147Z,100673.16
2023-01-13T15:29:57.273Z,100669.47
2023-01-13T15:33:02.173Z,100672.94
2023-01-13T15:36:08.724Z,100677.00
2023-01-13T15:39:16.462Z,100672.56
2023-01-13T15:42:40.155Z,100673.03
2023-01-13T15:46:03.287Z,100677.94
2023-01-13T15:49:21.877Z,100681.66
2023-01-13T15:52:28.400Z,100674.84
2023-01-13T15:55:37.999Z,100676.38
2023-01-13T15:58:45.263Z,100690.34
2023-01-13T16:01:52.349Z,100689.50
2023-01-13T16:04:57.767Z,100688.69
2023-01-13T16:08:03.769Z,100689.53
2023-01-13T16:11:09.596Z,100698.25
2023-01-13T16:14:14.809Z,100687.25
2023-01-13T16:17:21.938Z,100685.56
2023-01-13T16:20:28.214Z,100689.41
2023-01-13T16:23:37.816Z,100677.94
2023-01-13T16:26:44.561Z,100683.44
2023-01-13T16:29:51.469Z,100688.22
2023-01-13T16:33:00.945Z,100685.81
2023-01-13T16:36:12.941Z,100692.38
2023-01-13T16:39:23.435Z,100689.50
2023-01-13T16:42:31.558Z,100683.44
2023-01-13T16:45:39.295Z,100681.75
2023-01-13T16:48:48.536Z,100672.22
2023-01-13T16:51:54.090Z,100672.94
2023-01-13T16:55:01.452Z,100670.91
2023-01-13T16:58:07.797Z,100660.03
2023-01-13T17:01:21.056Z,100665.16
2023-01-13T17:04:28.144Z,100666.75
2023-01-13T17:07:34.510Z,100675.22
2023-01-13T17:10:46.043Z,100684.28
2023-01-13T17:13:54.506Z,100691.91
2023-01-13T17:17:00.575Z,100698.13
2023-01-13T17:20:06.677Z,100692.75
2023-01-13T17:23:16.802Z,100676.16
2023-01-13T17:26:26.698Z,100694.41
2023-01-13T17:29:32.152Z,100701.22
2023-01-13T17:32:42.445Z,100703.84
2023-01-13T17:35:52.233Z,100692.25
2023-01-13T17:38:58.872Z,100693.22
2023-01-13T17:42:04.349Z,100698.97
2023-01-13T17:45:14.108Z,100692.62
2023-01-13T17:48:20.643Z,100708.28
2023-01-13T17:51:27.377Z,100709.94
2023-01-13T17:54:34.425Z,100716.62
2023-01-13T17:57:40.560Z,100714.84
2023-01-13T18:00:48.905Z,100711.59
2023-01-13T18:03:57.140Z,100703.38
2023-01-13T18:07:03.839Z,100706.34
2023-01-13T18:10:10.465Z,100701.56
2023-01-13T18:13:20.988Z,100703.25
2023-01-13T18:16:30.767Z,100711.97
2023-01-13T18:19:54.177Z,100710.28
2023-01-13T18:23:20.647Z,100717.22
2023-01-13T18:26:45.822Z,100714.69
2023-01-13T18:29:56.336Z,100721.50
2023-01-13T18:33:03.160Z,100718.53
2023-01-13T18:36:16.413Z,100715.06
2023-01-13T18:39:26.421Z,100719.00
2023-01-13T18:42:52.153Z,100717.09
2023-01-13T18:46:01.100Z,100715.19
2023-01-13T18:49:09.337Z,100724.00
2023-01-13T18:52:14.316Z,100726.41
2023-01-13T18:55:21.704Z,100725.59
2023-01-13T18:58:29.509Z,100725.34
2023-01-13T19:01:38.503Z,100735.09
2023-01-13T19:04:46.484Z,100726.62
2023-01-13T19:07:56.491Z,100742.03
2023-01-13T19:11:07.040Z,100738.56
2023-01-13T19:14:35.428Z,100738.34
2023-01-13T19:17:42.084Z,100740.00
2023-01-13T19:20:51.351Z,100739.53
2023-01-13T19:23:59.110Z,100734.75
2023-01-13T19:27:09.827Z,100740.75
2023-01-13T19:30:15.872Z,100748.75
2023-01-13T19:33:25.046Z,100753.97
2023-01-13T19:36:31.719Z,100759.59
2023-01-13T19:39:36.282Z,100751.72
2023-01-13T19:43:01.612Z,100762.22
2023-01-13T19:46:06.943Z,100768.09
2023-01-13T19:49:11.651Z,100770.22
2023-01-13T19:52:16.567Z,100773.59
2023-01-13T19:55:21.518Z,100774.75
2023-01-13T19:58:27.608Z,100785.38
2023-01-13T20:01:38.174Z,100803.56
2023-01-13T20:04:46.436Z,100807.72
2023-01-13T20:07:51.876Z,100818.97
2023-01-13T20:11:15.804Z,100817.53
2023-01-13T20:14:19.621Z,100805.09
2023-01-13T20:17:27.644Z,100803.06
2023-01-13T20:20:32.646Z,100803.66
2023-01-13T20:23:36.452Z,100793.41
2023-01-13T20:26:44.429Z,100800.09
2023-01-13T20:29:52.915Z,100793.50
2023-01-13T20:33:00.408Z,100790.66
2023-01-13T20:36:07.468Z,100782.16
2023-01-13T20:39:14.728Z,100780.03
2023-01-13T20:42:30.434Z,100769.03
2023-01-13T20:45:37.737Z,100774.41
2023-01-13T20:48:42.199Z,100778.84
2023-01-13T20:51:48.744Z,100773.81
2023-01-13T20:54:54.039Z,100788.25
2023-01-13T20:57:59.567Z,100801.16
2023-01-13T21:01:05.620Z,100800.78
2023-01-13T21:04:09.418Z,100797.91
2023-01-13T21:07:15.037Z,100805.44
2023-01-13T21:10:22.141Z,100804.00
2023-01-13T21:13:46.171Z,100793.72
2023-01-13T21:16:51.801Z,100790.50
2023-01-13T21:19:59.936Z,100786.19
2023-01-13T21:23:07.418Z,100780.34
2023-01-13T21:26:15.239Z,100773.53
2023-01-13T21:29:19.647Z,100775.44
2023-01-13T21:32:28.249Z,100769.37
2023-01-13T21:35:40.075Z,100781.16
2023-01-13T21:38:47.887Z,100761.25
2023-01-13T21:42:12.454Z,100748.47
2023-01-13T21:45:38.712Z,100749.41
2023-01-13T21:48:45.685Z,100759.06
2023-01-13T21:51:54.696Z,100760.03
2023-01-13T21:55:19.676Z,100750.84
2023-01-13T21:58:26.394Z,100745.59
2023-01-13T22:01:30.813Z,100730.19
2023-01-13T22:04:37.131Z,100737.84
2023-01-13T22:07:43.891Z,100750.47
2023-01-13T22:11:01.887Z,100752.66
2023-01-13T22:14:11.722Z,100758.13
2023-01-13T22:17:19.858Z,100791.91
2023-01-13T22:20:25.679Z,100813.16
2023-01-13T22:23:33.202Z,100838.34
2023-01-13T22:26:41.629Z,100837.66
2023-01-13T22:29:50.226Z,100839.44
2023-01-13T22:32:57.642Z,100840.84
2023-01-13T22:36:06.805Z,100852.19
2023-01-13T22:39:15.242Z,100852.94
2023-01-13T22:42:22.569Z,100849.66
2023-01-13T22:45:29.599Z,100860.66
2023-01-13T22:48:39.566Z,100864.37
2023-01-13T22:51:47.067Z,100862.69
2023-01-13T22:54:55.295Z,100864.97
2023-01-13T22:58:04.827Z,100855.75
2023-01-13T23:01:13.714Z,100852.78
2023-01-13T23:04:20.900Z,100846.28
2023-01-13T23:07:28.650Z,100838.75
2023-01-13T23:10:38.152Z,100829.72
2023-01-13T23:13:46.641Z,100819.84
2023-01-13T23:16:53.293Z,100810.13
2023-01-13T23:20:03.316Z,100797.38
2023-01-13T23:23:11.856Z,100784.03
2023-01-13T23:26:18.706Z,100782.34
2023-01-13T23:29:25.917Z,100792.25
2023-01-13T23:32:36.721Z,100784.38
2023-01-13T23:35:45.609Z,100785.44
2023-01-13T23:38:54.467Z,100798.84
2023-01-13T23:42:04.031Z,100786.25
2023-01-13T23:45:11.750Z,100791.16
2023-01-13T23:48:20.896Z,100789.63
2023-01-13T23:51:31.422Z,100784.62
2023-01-13T23:54:40.979Z,100787.34
2023-01-13T23:57:49.901Z,100770.06
